sensor_id;sensor_type;location;lat;lon;timestamp;P1;durP1;ratioP1;P2;durP2;ratioP2
8399;SDS011;4237;47.030;15.396;2024-01-07T00:02:13;0.40;;;0.40;;
8399;SDS011;4237;47.030;15.396;2024-01-07T00:04:41;0.57;;;0.40;;
8399;SDS011;4237;47.030;15.396;2024-01-07T00:07:10;0.33;;;0.33;;
8399;SDS011;4237;47.030;15.396;2024-01-07T00:09:38;0.33;;;0.30;;
8399;SDS011;4237;47.030;15.396;2024-01-07T00:12:07;0.40;;;0.40;;
8399;SDS011;4237;47.030;15.396;2024-01-07T00:14:36;0.40;;;0.40;;
8399;SDS011;4237;47.030;15.396;2024-01-07T00:17:04;0.30;;;0.30;;
8399;SDS011;4237;47.030;15.396;2024-01-07T00:19:33;0.30;;;0.30;;
8399;SDS011;4237;47.030;15.396;2024-01-07T00:22:02;0.50;;;0.40;;
8399;SDS011;4237;47.030;15.396;2024-01-07T00:24:31;0.30;;;0.30;;
8399;SDS011;4237;47.030;15.396;2024-01-07T00:27:00;0.40;;;0.40;;
8399;SDS011;4237;47.030;15.396;2024-01-07T00:29:28;0.20;;;0.20;;
8399;SDS011;4237;47.030;15.396;2024-01-07T00:31:57;0.50;;;0.50;;
8399;SDS011;4237;47.030;15.396;2024-01-07T00:34:25;0.30;;;0.30;;
8399;SDS011;4237;47.030;15.396;2024-01-07T00:36:54;0.40;;;0.30;;
8399;SDS011;4237;47.030;15.396;2024-01-07T00:39:23;0.63;;;0.40;;
8399;SDS011;4237;47.030;15.396;2024-01-07T00:41:52;0.30;;;0.30;;
8399;SDS011;4237;47.030;15.396;2024-01-07T00:44:20;0.30;;;0.30;;
8399;SDS011;4237;47.030;15.396;2024-01-07T00:46:49;0.30;;;0.30;;
8399;SDS011;4237;47.030;15.396;2024-01-07T00:49:17;0.30;;;0.30;;
8399;SDS011;4237;47.030;15.396;2024-01-07T00:51:46;0.30;;;0.30;;
8399;SDS011;4237;47.030;15.396;2024-01-07T00:54:14;0.47;;;0.40;;
8399;SDS011;4237;47.030;15.396;2024-01-07T00:56:43;0.20;;;0.20;;
8399;SDS011;4237;47.030;15.396;2024-01-07T00:59:12;0.20;;;0.20;;
8399;SDS011;4237;47.030;15.396;2024-01-07T01:01:41;0.40;;;0.40;;
8399;SDS011;4237;47.030;15.396;2024-01-07T01:04:09;0.40;;;0.40;;
8399;SDS011;4237;47.030;15.396;2024-01-07T01:06:38;0.97;;;0.30;;
8399;SDS011;4237;47.030;15.396;2024-01-07T01:09:06;0.60;;;0.57;;
8399;SDS011;4237;47.030;15.396;2024-01-07T01:11:35;0.30;;;0.30;;
8399;SDS011;4237;47.030;15.396;2024-01-07T01:14:03;0.37;;;0.37;;
8399;SDS011;4237;47.030;15.396;2024-01-07T01:16:32;0.30;;;0.30;;
8399;SDS011;4237;47.030;15.396;2024-01-07T01:19:01;0.30;;;0.30;;
8399;SDS011;4237;47.030;15.396;2024-01-07T01:21:29;0.67;;;0.40;;
8399;SDS011;4237;47.030;15.396;2024-01-07T01:23:58;0.30;;;0.30;;
8399;SDS011;4237;47.030;15.396;2024-01-07T01:26:26;1.33;;;0.27;;
8399;SDS011;4237;47.030;15.396;2024-01-07T01:28:55;0.40;;;0.30;;
8399;SDS011;4237;47.030;15.396;2024-01-07T01:31:24;0.33;;;0.30;;
8399;SDS011;4237;47.030;15.396;2024-01-07T01:33:52;0.40;;;0.40;;
8399;SDS011;4237;47.030;15.396;2024-01-07T01:36:21;1.30;;;0.30;;
8399;SDS011;4237;47.030;15.396;2024-01-07T01:38:49;0.30;;;0.30;;
8399;SDS011;4237;47.030;15.396;2024-01-07T01:41:18;0.27;;;0.20;;
8399;SDS011;4237;47.030;15.396;2024-01-07T01:43:46;0.30;;;0.30;;
8399;SDS011;4237;47.030;15.396;2024-01-07T01:46:15;0.30;;;0.30;;
8399;SDS011;4237;47.030;15.396;2024-01-07T01:48:44;0.30;;;0.30;;
8399;SDS011;4237;47.030;15.396;2024-01-07T01:51:12;0.30;;;0.30;;
8399;SDS011;4237;47.030;15.396;2024-01-07T01:53:41;0.30;;;0.30;;
8399;SDS011;4237;47.030;15.396;2024-01-07T01:56:09;0.30;;;0.30;;
8399;SDS011;4237;47.030;15.396;2024-01-07T01:58:38;0.30;;;0.30;;
8399;SDS011;4237;47.030;15.396;2024-01-07T02:01:07;0.20;;;0.20;;
8399;SDS011;4237;47.030;15.396;2024-01-07T02:03:36;0.40;;;0.40;;
8399;SDS011;4237;47.030;15.396;2024-01-07T02:06:05;0.33;;;0.30;;
8399;SDS011;4237;47.030;15.396;2024-01-07T02:08:33;0.30;;;0.30;;
8399;SDS011;4237;47.030;15.396;2024-01-07T02:11:18;0.23;;;0.23;;
8399;SDS011;4237;47.030;15.396;2024-01-07T02:13:49;0.30;;;0.30;;
8399;SDS011;4237;47.030;15.396;2024-01-07T02:16:17;0.50;;;0.30;;
8399;SDS011;4237;47.030;15.396;2024-01-07T02:18:46;0.30;;;0.30;;
8399;SDS011;4237;47.030;15.396;2024-01-07T02:21:15;0.30;;;0.30;;
8399;SDS011;4237;47.030;15.396;2024-01-07T02:23:43;0.30;;;0.30;;
8399;SDS011;4237;47.030;15.396;2024-01-07T02:26:12;0.40;;;0.40;;
8399;SDS011;4237;47.030;15.396;2024-01-07T02:28:41;0.47;;;0.40;;
8399;SDS011;4237;47.030;15.396;2024-01-07T02:31:09;0.57;;;0.40;;
8399;SDS011;4237;47.030;15.396;2024-01-07T02:33:38;0.50;;;0.40;;
8399;SDS011;4237;47.030;15.396;2024-01-07T02:36:06;0.40;;;0.30;;
8399;SDS011;4237;47.030;15.396;2024-01-07T02:38:35;0.33;;;0.33;;
8399;SDS011;4237;47.030;15.396;2024-01-07T02:41:04;0.30;;;0.30;;
8399;SDS011;4237;47.030;15.396;2024-01-07T02:43:32;0.37;;;0.37;;
8399;SDS011;4237;47.030;15.396;2024-01-07T02:46:01;0.70;;;0.40;;
8399;SDS011;4237;47.030;15.396;2024-01-07T02:48:29;0.40;;;0.40;;
8399;SDS011;4237;47.030;15.396;2024-01-07T02:50:58;0.30;;;0.30;;
8399;SDS011;4237;47.030;15.396;2024-01-07T02:53:26;0.93;;;0.30;;
8399;SDS011;4237;47.030;15.396;2024-01-07T02:55:55;0.40;;;0.30;;
8399;SDS011;4237;47.030;15.396;2024-01-07T02:58:24;0.60;;;0.50;;
8399;SDS011;4237;47.030;15.396;2024-01-07T03:00:52;0.30;;;0.30;;
8399;SDS011;4237;47.030;15.396;2024-01-07T03:03:21;0.30;;;0.30;;
8399;SDS011;4237;47.030;15.396;2024-01-07T03:05:49;0.40;;;0.40;;
8399;SDS011;4237;47.030;15.396;2024-01-07T03:08:18;0.40;;;0.40;;
8399;SDS011;4237;47.030;15.396;2024-01-07T03:10:47;0.30;;;0.30;;
8399;SDS011;4237;47.030;15.396;2024-01-07T03:13:15;1.70;;;0.50;;
8399;SDS011;4237;47.030;15.396;2024-01-07T03:15:44;0.47;;;0.40;;
8399;SDS011;4237;47.030;15.396;2024-01-07T03:18:12;0.70;;;0.60;;
8399;SDS011;4237;47.030;15.396;2024-01-07T03:20:41;0.33;;;0.30;;
8399;SDS011;4237;47.030;15.396;2024-01-07T03:23:10;0.53;;;0.53;;
8399;SDS011;4237;47.030;15.396;2024-01-07T03:25:38;0.30;;;0.30;;
8399;SDS011;4237;47.030;15.396;2024-01-07T03:28:07;0.40;;;0.40;;
8399;SDS011;4237;47.030;15.396;2024-01-07T03:30:35;0.47;;;0.47;;
8399;SDS011;4237;47.030;15.396;2024-01-07T03:33:04;0.40;;;0.40;;
8399;SDS011;4237;47.030;15.396;2024-01-07T03:35:33;0.53;;;0.30;;
8399;SDS011;4237;47.030;15.396;2024-01-07T03:38:01;0.30;;;0.30;;
8399;SDS011;4237;47.030;15.396;2024-01-07T03:40:30;0.33;;;0.33;;
8399;SDS011;4237;47.030;15.396;2024-01-07T03:42:58;0.40;;;0.30;;
8399;SDS011;4237;47.030;15.396;2024-01-07T03:45:27;1.13;;;0.30;;
8399;SDS011;4237;47.030;15.396;2024-01-07T03:47:56;0.67;;;0.50;;
8399;SDS011;4237;47.030;15.396;2024-01-07T03:50:24;0.30;;;0.30;;
8399;SDS011;4237;47.030;15.396;2024-01-07T03:52:53;0.40;;;0.40;;
8399;SDS011;4237;47.030;15.396;2024-01-07T03:55:21;0.53;;;0.50;;
8399;SDS011;4237;47.030;15.396;2024-01-07T03:57:50;0.47;;;0.47;;
8399;SDS011;4237;47.030;15.396;2024-01-07T04:00:18;0.97;;;0.33;;
8399;SDS011;4237;47.030;15.396;2024-01-07T04:02:47;0.50;;;0.50;;
8399;SDS011;4237;47.030;15.396;2024-01-07T04:05:16;0.57;;;0.43;;
8399;SDS011;4237;47.030;15.396;2024-01-07T04:07:44;0.63;;;0.50;;
8399;SDS011;4237;47.030;15.396;2024-01-07T04:10:13;0.50;;;0.50;;
8399;SDS011;4237;47.030;15.396;2024-01-07T04:12:43;0.50;;;0.40;;
8399;SDS011;4237;47.030;15.396;2024-01-07T04:15:12;0.73;;;0.60;;
8399;SDS011;4237;47.030;15.396;2024-01-07T04:17:40;0.47;;;0.47;;
8399;SDS011;4237;47.030;15.396;2024-01-07T04:20:12;0.43;;;0.43;;
8399;SDS011;4237;47.030;15.396;2024-01-07T04:22:42;1.23;;;0.50;;
8399;SDS011;4237;47.030;15.396;2024-01-07T04:25:10;0.60;;;0.60;;
8399;SDS011;4237;47.030;15.396;2024-01-07T04:27:39;1.10;;;0.73;;
8399;SDS011;4237;47.030;15.396;2024-01-07T04:30:07;0.80;;;0.50;;
8399;SDS011;4237;47.030;15.396;2024-01-07T04:32:37;0.80;;;0.63;;
8399;SDS011;4237;47.030;15.396;2024-01-07T04:35:05;0.63;;;0.50;;
8399;SDS011;4237;47.030;15.396;2024-01-07T04:37:35;1.03;;;0.50;;
8399;SDS011;4237;47.030;15.396;2024-01-07T04:40:05;0.53;;;0.40;;
8399;SDS011;4237;47.030;15.396;2024-01-07T04:42:34;0.40;;;0.40;;
8399;SDS011;4237;47.030;15.396;2024-01-07T04:45:02;0.53;;;0.50;;
8399;SDS011;4237;47.030;15.396;2024-01-07T04:47:32;0.50;;;0.50;;
8399;SDS011;4237;47.030;15.396;2024-01-07T04:50:01;0.80;;;0.60;;
8399;SDS011;4237;47.030;15.396;2024-01-07T04:52:31;0.57;;;0.40;;
8399;SDS011;4237;47.030;15.396;2024-01-07T04:55:00;1.13;;;0.50;;
8399;SDS011;4237;47.030;15.396;2024-01-07T04:57:28;0.80;;;0.50;;
8399;SDS011;4237;47.030;15.396;2024-01-07T04:59:57;0.50;;;0.40;;
8399;SDS011;4237;47.030;15.396;2024-01-07T05:02:25;0.57;;;0.50;;
8399;SDS011;4237;47.030;15.396;2024-01-07T05:04:54;1.80;;;0.70;;
8399;SDS011;4237;47.030;15.396;2024-01-07T05:07:23;0.73;;;0.50;;
8399;SDS011;4237;47.030;15.396;2024-01-07T05:09:51;0.60;;;0.50;;
8399;SDS011;4237;47.030;15.396;2024-01-07T05:12:20;0.50;;;0.50;;
8399;SDS011;4237;47.030;15.396;2024-01-07T05:14:48;0.97;;;0.50;;
8399;SDS011;4237;47.030;15.396;2024-01-07T05:17:17;0.60;;;0.60;;
8399;SDS011;4237;47.030;15.396;2024-01-07T05:19:46;0.70;;;0.50;;
8399;SDS011;4237;47.030;15.396;2024-01-07T05:22:14;0.40;;;0.40;;
8399;SDS011;4237;47.030;15.396;2024-01-07T05:24:43;0.87;;;0.67;;
8399;SDS011;4237;47.030;15.396;2024-01-07T05:27:12;0.90;;;0.63;;
8399;SDS011;4237;47.030;15.396;2024-01-07T05:29:44;0.50;;;0.50;;
8399;SDS011;4237;47.030;15.396;2024-01-07T05:32:14;1.40;;;0.50;;
8399;SDS011;4237;47.030;15.396;2024-01-07T05:34:42;0.63;;;0.57;;
8399;SDS011;4237;47.030;15.396;2024-01-07T05:37:11;0.60;;;0.60;;
8399;SDS011;4237;47.030;15.396;2024-01-07T05:39:39;0.77;;;0.60;;
8399;SDS011;4237;47.030;15.396;2024-01-07T05:42:08;0.80;;;0.67;;
8399;SDS011;4237;47.030;15.396;2024-01-07T05:44:37;0.80;;;0.60;;
8399;SDS011;4237;47.030;15.396;2024-01-07T05:47:07;1.00;;;0.80;;
8399;SDS011;4237;47.030;15.396;2024-01-07T05:49:35;0.57;;;0.50;;
8399;SDS011;4237;47.030;15.396;2024-01-07T05:52:04;0.70;;;0.50;;
8399;SDS011;4237;47.030;15.396;2024-01-07T05:54:33;0.77;;;0.50;;
8399;SDS011;4237;47.030;15.396;2024-01-07T05:57:01;0.70;;;0.53;;
8399;SDS011;4237;47.030;15.396;2024-01-07T05:59:30;1.00;;;0.70;;
8399;SDS011;4237;47.030;15.396;2024-01-07T06:01:58;0.60;;;0.50;;
8399;SDS011;4237;47.030;15.396;2024-01-07T06:04:27;1.03;;;0.70;;
8399;SDS011;4237;47.030;15.396;2024-01-07T06:06:56;0.80;;;0.60;;
8399;SDS011;4237;47.030;15.396;2024-01-07T06:09:25;0.47;;;0.47;;
8399;SDS011;4237;47.030;15.396;2024-01-07T06:11:54;0.60;;;0.50;;
8399;SDS011;4237;47.030;15.396;2024-01-07T06:14:23;0.90;;;0.60;;
8399;SDS011;4237;47.030;15.396;2024-01-07T06:16:52;0.87;;;0.40;;
8399;SDS011;4237;47.030;15.396;2024-01-07T06:19:21;1.13;;;0.60;;
8399;SDS011;4237;47.030;15.396;2024-01-07T06:21:49;0.63;;;0.53;;
8399;SDS011;4237;47.030;15.396;2024-01-07T06:24:18;1.47;;;0.67;;
8399;SDS011;4237;47.030;15.396;2024-01-07T06:26:46;0.80;;;0.50;;
8399;SDS011;4237;47.030;15.396;2024-01-07T06:29:15;0.70;;;0.50;;
8399;SDS011;4237;47.030;15.396;2024-01-07T06:31:43;0.97;;;0.60;;
8399;SDS011;4237;47.030;15.396;2024-01-07T06:34:12;0.60;;;0.50;;
8399;SDS011;4237;47.030;15.396;2024-01-07T06:36:41;0.60;;;0.60;;
8399;SDS011;4237;47.030;15.396;2024-01-07T06:39:10;0.63;;;0.40;;
8399;SDS011;4237;47.030;15.396;2024-01-07T06:41:39;1.10;;;0.60;;
8399;SDS011;4237;47.030;15.396;2024-01-07T06:44:07;1.17;;;0.60;;
8399;SDS011;4237;47.030;15.396;2024-01-07T06:46:36;0.67;;;0.63;;
8399;SDS011;4237;47.030;15.396;2024-01-07T06:49:04;1.00;;;0.60;;
8399;SDS011;4237;47.030;15.396;2024-01-07T06:51:33;1.23;;;0.60;;
8399;SDS011;4237;47.030;15.396;2024-01-07T06:54:02;0.80;;;0.57;;
8399;SDS011;4237;47.030;15.396;2024-01-07T06:56:30;0.77;;;0.50;;
8399;SDS011;4237;47.030;15.396;2024-01-07T06:58:59;1.00;;;0.63;;
8399;SDS011;4237;47.030;15.396;2024-01-07T07:01:28;0.60;;;0.60;;
8399;SDS011;4237;47.030;15.396;2024-01-07T07:03:56;0.80;;;0.73;;
8399;SDS011;4237;47.030;15.396;2024-01-07T07:06:25;0.67;;;0.43;;
8399;SDS011;4237;47.030;15.396;2024-01-07T07:08:53;0.63;;;0.40;;
8399;SDS011;4237;47.030;15.396;2024-01-07T07:11:22;1.13;;;0.60;;
8399;SDS011;4237;47.030;15.396;2024-01-07T07:13:51;0.57;;;0.50;;
8399;SDS011;4237;47.030;15.396;2024-01-07T07:16:19;0.43;;;0.43;;
8399;SDS011;4237;47.030;15.396;2024-01-07T07:18:48;1.70;;;0.70;;
8399;SDS011;4237;47.030;15.396;2024-01-07T07:21:16;2.30;;;1.70;;
8399;SDS011;4237;47.030;15.396;2024-01-07T07:23:45;5.63;;;3.33;;
8399;SDS011;4237;47.030;15.396;2024-01-07T07:26:14;0.50;;;0.50;;
8399;SDS011;4237;47.030;15.396;2024-01-07T07:28:42;0.60;;;0.60;;
8399;SDS011;4237;47.030;15.396;2024-01-07T07:31:11;0.50;;;0.50;;
8399;SDS011;4237;47.030;15.396;2024-01-07T07:33:40;0.40;;;0.40;;
8399;SDS011;4237;47.030;15.396;2024-01-07T07:36:08;0.90;;;0.47;;
8399;SDS011;4237;47.030;15.396;2024-01-07T07:38:37;0.60;;;0.50;;
8399;SDS011;4237;47.030;15.396;2024-01-07T07:41:06;0.60;;;0.40;;
8399;SDS011;4237;47.030;15.396;2024-01-07T07:43:35;1.17;;;0.93;;
8399;SDS011;4237;47.030;15.396;2024-01-07T07:46:04;0.60;;;0.60;;
8399;SDS011;4237;47.030;15.396;2024-01-07T07:48:32;0.87;;;0.80;;
8399;SDS011;4237;47.030;15.396;2024-01-07T07:51:01;0.50;;;0.50;;
8399;SDS011;4237;47.030;15.396;2024-01-07T07:53:29;0.47;;;0.47;;
8399;SDS011;4237;47.030;15.396;2024-01-07T07:55:58;0.57;;;0.57;;
8399;SDS011;4237;47.030;15.396;2024-01-07T07:58:28;0.60;;;0.50;;
8399;SDS011;4237;47.030;15.396;2024-01-07T08:00:57;0.60;;;0.60;;
8399;SDS011;4237;47.030;15.396;2024-01-07T08:03:25;1.33;;;1.23;;
8399;SDS011;4237;47.030;15.396;2024-01-07T08:05:54;0.50;;;0.40;;
8399;SDS011;4237;47.030;15.396;2024-01-07T08:08:22;0.50;;;0.43;;
8399;SDS011;4237;47.030;15.396;2024-01-07T08:10:51;1.70;;;0.93;;
8399;SDS011;4237;47.030;15.396;2024-01-07T08:13:19;0.63;;;0.60;;
8399;SDS011;4237;47.030;15.396;2024-01-07T08:15:48;0.60;;;0.60;;
8399;SDS011;4237;47.030;15.396;2024-01-07T08:18:17;0.40;;;0.40;;
8399;SDS011;4237;47.030;15.396;2024-01-07T08:20:45;0.50;;;0.50;;
8399;SDS011;4237;47.030;15.396;2024-01-07T08:23:14;0.63;;;0.50;;
8399;SDS011;4237;47.030;15.396;2024-01-07T08:25:42;0.70;;;0.70;;
8399;SDS011;4237;47.030;15.396;2024-01-07T08:28:12;0.40;;;0.40;;
8399;SDS011;4237;47.030;15.396;2024-01-07T08:30:40;0.57;;;0.50;;
8399;SDS011;4237;47.030;15.396;2024-01-07T08:33:09;0.40;;;0.40;;
8399;SDS011;4237;47.030;15.396;2024-01-07T08:35:38;0.83;;;0.50;;
8399;SDS011;4237;47.030;15.396;2024-01-07T08:38:06;0.83;;;0.63;;
8399;SDS011;4237;47.030;15.396;2024-01-07T08:40:35;0.53;;;0.47;;
8399;SDS011;4237;47.030;15.396;2024-01-07T08:43:03;1.20;;;0.60;;
8399;SDS011;4237;47.030;15.396;2024-01-07T08:45:32;0.50;;;0.50;;
8399;SDS011;4237;47.030;15.396;2024-01-07T08:48:00;0.70;;;0.60;;
8399;SDS011;4237;47.030;15.396;2024-01-07T08:50:29;1.07;;;0.87;;
8399;SDS011;4237;47.030;15.396;2024-01-07T08:52:58;2.13;;;1.63;;
8399;SDS011;4237;47.030;15.396;2024-01-07T08:55:26;1.07;;;0.97;;
8399;SDS011;4237;47.030;15.396;2024-01-07T08:57:55;0.77;;;0.60;;
8399;SDS011;4237;47.030;15.396;2024-01-07T09:00:23;0.60;;;0.60;;
8399;SDS011;4237;47.030;15.396;2024-01-07T09:02:53;1.00;;;0.90;;
8399;SDS011;4237;47.030;15.396;2024-01-07T09:05:22;1.00;;;0.60;;
8399;SDS011;4237;47.030;15.396;2024-01-07T09:07:52;1.47;;;1.10;;
8399;SDS011;4237;47.030;15.396;2024-01-07T09:10:21;1.13;;;1.03;;
8399;SDS011;4237;47.030;15.396;2024-01-07T09:12:51;0.50;;;0.50;;
8399;SDS011;4237;47.030;15.396;2024-01-07T09:15:20;0.50;;;0.50;;
8399;SDS011;4237;47.030;15.396;2024-01-07T09:17:49;1.07;;;0.70;;
8399;SDS011;4237;47.030;15.396;2024-01-07T09:20:17;1.03;;;0.93;;
8399;SDS011;4237;47.030;15.396;2024-01-07T09:22:46;0.70;;;0.70;;
8399;SDS011;4237;47.030;15.396;2024-01-07T09:25:15;1.43;;;1.33;;
8399;SDS011;4237;47.030;15.396;2024-01-07T09:27:44;0.83;;;0.67;;
8399;SDS011;4237;47.030;15.396;2024-01-07T09:30:12;1.47;;;0.70;;
8399;SDS011;4237;47.030;15.396;2024-01-07T09:32:44;0.73;;;0.73;;
8399;SDS011;4237;47.030;15.396;2024-01-07T09:35:13;0.50;;;0.50;;
8399;SDS011;4237;47.030;15.396;2024-01-07T09:37:41;0.60;;;0.60;;
8399;SDS011;4237;47.030;15.396;2024-01-07T09:40:10;0.80;;;0.70;;
8399;SDS011;4237;47.030;15.396;2024-01-07T09:42:39;0.73;;;0.60;;
8399;SDS011;4237;47.030;15.396;2024-01-07T09:45:08;0.70;;;0.60;;
8399;SDS011;4237;47.030;15.396;2024-01-07T09:47:40;0.50;;;0.50;;
8399;SDS011;4237;47.030;15.396;2024-01-07T09:50:10;0.73;;;0.70;;
8399;SDS011;4237;47.030;15.396;2024-01-07T09:52:42;0.70;;;0.67;;
8399;SDS011;4237;47.030;15.396;2024-01-07T09:55:26;0.73;;;0.60;;
8399;SDS011;4237;47.030;15.396;2024-01-07T09:57:52;1.50;;;0.70;;
8399;SDS011;4237;47.030;15.396;2024-01-07T10:00:21;0.60;;;0.60;;
8399;SDS011;4237;47.030;15.396;2024-01-07T10:02:49;1.33;;;0.70;;
8399;SDS011;4237;47.030;15.396;2024-01-07T10:05:18;0.60;;;0.60;;
8399;SDS011;4237;47.030;15.396;2024-01-07T10:07:47;0.80;;;0.60;;
8399;SDS011;4237;47.030;15.396;2024-01-07T10:10:16;1.27;;;0.77;;
8399;SDS011;4237;47.030;15.396;2024-01-07T10:12:45;0.77;;;0.77;;
8399;SDS011;4237;47.030;15.396;2024-01-07T10:15:14;0.93;;;0.60;;
8399;SDS011;4237;47.030;15.396;2024-01-07T10:17:43;0.57;;;0.57;;
8399;SDS011;4237;47.030;15.396;2024-01-07T10:20:12;0.80;;;0.60;;
8399;SDS011;4237;47.030;15.396;2024-01-07T10:22:40;0.90;;;0.73;;
8399;SDS011;4237;47.030;15.396;2024-01-07T10:25:12;0.60;;;0.60;;
8399;SDS011;4237;47.030;15.396;2024-01-07T10:27:42;1.13;;;0.80;;
8399;SDS011;4237;47.030;15.396;2024-01-07T10:30:11;0.50;;;0.50;;
8399;SDS011;4237;47.030;15.396;2024-01-07T10:32:41;1.03;;;0.80;;
8399;SDS011;4237;47.030;15.396;2024-01-07T10:35:14;0.60;;;0.60;;
8399;SDS011;4237;47.030;15.396;2024-01-07T10:37:43;2.70;;;0.80;;
8399;SDS011;4237;47.030;15.396;2024-01-07T10:40:12;0.90;;;0.80;;
8399;SDS011;4237;47.030;15.396;2024-01-07T10:42:40;1.00;;;0.90;;
8399;SDS011;4237;47.030;15.396;2024-01-07T10:45:11;1.10;;;0.90;;
8399;SDS011;4237;47.030;15.396;2024-01-07T10:47:41;3.57;;;1.93;;
8399;SDS011;4237;47.030;15.396;2024-01-07T10:50:13;2.80;;;1.90;;
8399;SDS011;4237;47.030;15.396;2024-01-07T10:52:43;1.53;;;1.43;;
8399;SDS011;4237;47.030;15.396;2024-01-07T10:55:13;1.73;;;1.10;;
8399;SDS011;4237;47.030;15.396;2024-01-07T10:57:49;0.90;;;0.80;;
8399;SDS011;4237;47.030;15.396;2024-01-07T11:00:17;0.90;;;0.80;;
8399;SDS011;4237;47.030;15.396;2024-01-07T11:02:54;1.00;;;0.80;;
8399;SDS011;4237;47.030;15.396;2024-01-07T11:05:31;0.60;;;0.60;;
8399;SDS011;4237;47.030;15.396;2024-01-07T11:08:05;1.00;;;0.70;;
8399;SDS011;4237;47.030;15.396;2024-01-07T11:10:37;0.67;;;0.67;;
8399;SDS011;4237;47.030;15.396;2024-01-07T11:13:06;1.07;;;0.80;;
8399;SDS011;4237;47.030;15.396;2024-01-07T11:18:20;0.87;;;0.80;;
8399;SDS011;4237;47.030;15.396;2024-01-07T11:20:50;1.37;;;1.10;;
8399;SDS011;4237;47.030;15.396;2024-01-07T11:23:27;1.43;;;1.23;;
8399;SDS011;4237;47.030;15.396;2024-01-07T11:25:57;1.37;;;1.20;;
8399;SDS011;4237;47.030;15.396;2024-01-07T11:28:45;1.73;;;1.00;;
8399;SDS011;4237;47.030;15.396;2024-01-07T11:31:21;1.53;;;1.07;;
8399;SDS011;4237;47.030;15.396;2024-01-07T11:34:08;2.60;;;1.60;;
8399;SDS011;4237;47.030;15.396;2024-01-07T11:36:36;1.43;;;1.20;;
8399;SDS011;4237;47.030;15.396;2024-01-07T11:39:05;2.07;;;1.70;;
8399;SDS011;4237;47.030;15.396;2024-01-07T11:41:35;1.67;;;1.20;;
8399;SDS011;4237;47.030;15.396;2024-01-07T11:44:05;1.43;;;1.23;;
8399;SDS011;4237;47.030;15.396;2024-01-07T11:46:33;1.40;;;1.00;;
8399;SDS011;4237;47.030;15.396;2024-01-07T11:49:02;1.60;;;0.97;;
8399;SDS011;4237;47.030;15.396;2024-01-07T11:51:32;1.60;;;1.20;;
8399;SDS011;4237;47.030;15.396;2024-01-07T11:54:02;2.43;;;1.20;;
8399;SDS011;4237;47.030;15.396;2024-01-07T11:56:30;1.73;;;1.50;;
8399;SDS011;4237;47.030;15.396;2024-01-07T11:58:59;1.30;;;1.00;;
8399;SDS011;4237;47.030;15.396;2024-01-07T12:01:27;1.43;;;1.20;;
8399;SDS011;4237;47.030;15.396;2024-01-07T12:03:56;1.53;;;1.20;;
8399;SDS011;4237;47.030;15.396;2024-01-07T12:06:24;1.50;;;1.20;;
8399;SDS011;4237;47.030;15.396;2024-01-07T12:08:53;1.40;;;1.20;;
8399;SDS011;4237;47.030;15.396;2024-01-07T12:11:22;1.80;;;1.40;;
8399;SDS011;4237;47.030;15.396;2024-01-07T12:13:50;1.93;;;1.60;;
8399;SDS011;4237;47.030;15.396;2024-01-07T12:16:20;1.67;;;1.57;;
8399;SDS011;4237;47.030;15.396;2024-01-07T12:18:48;2.53;;;2.07;;
8399;SDS011;4237;47.030;15.396;2024-01-07T12:21:20;3.57;;;2.87;;
8399;SDS011;4237;47.030;15.396;2024-01-07T12:23:49;2.10;;;1.77;;
8399;SDS011;4237;47.030;15.396;2024-01-07T12:26:19;1.20;;;0.97;;
8399;SDS011;4237;47.030;15.396;2024-01-07T12:28:57;2.67;;;1.53;;
8399;SDS011;4237;47.030;15.396;2024-01-07T12:31:32;1.20;;;1.00;;
8399;SDS011;4237;47.030;15.396;2024-01-07T12:34:02;1.23;;;1.13;;
8399;SDS011;4237;47.030;15.396;2024-01-07T12:36:31;1.80;;;1.20;;
8399;SDS011;4237;47.030;15.396;2024-01-07T12:39:01;0.97;;;0.87;;
8399;SDS011;4237;47.030;15.396;2024-01-07T12:41:30;1.20;;;1.10;;
8399;SDS011;4237;47.030;15.396;2024-01-07T12:43:58;1.57;;;1.20;;
8399;SDS011;4237;47.030;15.396;2024-01-07T12:46:27;1.43;;;1.20;;
8399;SDS011;4237;47.030;15.396;2024-01-07T12:48:55;1.23;;;0.93;;
8399;SDS011;4237;47.030;15.396;2024-01-07T12:51:24;1.27;;;0.80;;
8399;SDS011;4237;47.030;15.396;2024-01-07T12:53:53;1.33;;;1.00;;
8399;SDS011;4237;47.030;15.396;2024-01-07T12:56:23;1.30;;;0.87;;
8399;SDS011;4237;47.030;15.396;2024-01-07T12:58:51;1.30;;;1.03;;
8399;SDS011;4237;47.030;15.396;2024-01-07T13:01:20;1.03;;;0.87;;
8399;SDS011;4237;47.030;15.396;2024-01-07T13:03:48;0.77;;;0.70;;
8399;SDS011;4237;47.030;15.396;2024-01-07T13:06:17;0.70;;;0.70;;
8399;SDS011;4237;47.030;15.396;2024-01-07T13:08:46;0.80;;;0.80;;
8399;SDS011;4237;47.030;15.396;2024-01-07T13:11:14;1.60;;;1.20;;
8399;SDS011;4237;47.030;15.396;2024-01-07T13:13:43;1.27;;;0.83;;
8399;SDS011;4237;47.030;15.396;2024-01-07T13:16:12;1.83;;;1.73;;
8399;SDS011;4237;47.030;15.396;2024-01-07T13:18:40;1.33;;;1.17;;
8399;SDS011;4237;47.030;15.396;2024-01-07T13:21:09;2.03;;;1.80;;
8399;SDS011;4237;47.030;15.396;2024-01-07T13:23:37;2.07;;;1.30;;
8399;SDS011;4237;47.030;15.396;2024-01-07T13:26:08;2.40;;;1.33;;
8399;SDS011;4237;47.030;15.396;2024-01-07T13:28:36;0.90;;;0.83;;
8399;SDS011;4237;47.030;15.396;2024-01-07T13:31:05;1.30;;;1.00;;
8399;SDS011;4237;47.030;15.396;2024-01-07T13:33:33;0.93;;;0.90;;
8399;SDS011;4237;47.030;15.396;2024-01-07T13:36:03;1.40;;;1.30;;
8399;SDS011;4237;47.030;15.396;2024-01-07T13:38:33;1.47;;;1.07;;
8399;SDS011;4237;47.030;15.396;2024-01-07T13:41:02;2.20;;;1.53;;
8399;SDS011;4237;47.030;15.396;2024-01-07T13:43:31;2.43;;;2.00;;
8399;SDS011;4237;47.030;15.396;2024-01-07T13:45:59;1.30;;;1.20;;
8399;SDS011;4237;47.030;15.396;2024-01-07T13:48:29;1.43;;;1.10;;
8399;SDS011;4237;47.030;15.396;2024-01-07T13:50:58;1.03;;;0.93;;
8399;SDS011;4237;47.030;15.396;2024-01-07T13:53:27;1.03;;;0.93;;
8399;SDS011;4237;47.030;15.396;2024-01-07T13:55:56;1.10;;;1.00;;
8399;SDS011;4237;47.030;15.396;2024-01-07T13:58:24;0.90;;;0.90;;
8399;SDS011;4237;47.030;15.396;2024-01-07T14:00:53;0.80;;;0.80;;
8399;SDS011;4237;47.030;15.396;2024-01-07T14:03:21;1.00;;;0.87;;
8399;SDS011;4237;47.030;15.396;2024-01-07T14:05:50;0.90;;;0.80;;
8399;SDS011;4237;47.030;15.396;2024-01-07T14:08:19;1.17;;;1.03;;
8399;SDS011;4237;47.030;15.396;2024-01-07T14:10:47;1.00;;;0.90;;
8399;SDS011;4237;47.030;15.396;2024-01-07T14:13:16;0.90;;;0.90;;
8399;SDS011;4237;47.030;15.396;2024-01-07T14:15:44;1.30;;;0.97;;
8399;SDS011;4237;47.030;15.396;2024-01-07T14:18:13;0.90;;;0.70;;
8399;SDS011;4237;47.030;15.396;2024-01-07T14:20:43;1.17;;;1.00;;
8399;SDS011;4237;47.030;15.396;2024-01-07T14:23:12;1.30;;;1.00;;
8399;SDS011;4237;47.030;15.396;2024-01-07T14:25:40;0.70;;;0.70;;
8399;SDS011;4237;47.030;15.396;2024-01-07T14:28:09;1.13;;;1.00;;
8399;SDS011;4237;47.030;15.396;2024-01-07T14:30:37;1.10;;;1.00;;
8399;SDS011;4237;47.030;15.396;2024-01-07T14:33:06;0.97;;;0.87;;
8399;SDS011;4237;47.030;15.396;2024-01-07T14:35:34;0.93;;;0.77;;
8399;SDS011;4237;47.030;15.396;2024-01-07T14:40:22;1.70;;;1.60;;
8399;SDS011;4237;47.030;15.396;2024-01-07T14:42:51;1.20;;;1.10;;
8399;SDS011;4237;47.030;15.396;2024-01-07T14:45:24;1.00;;;0.90;;
8399;SDS011;4237;47.030;15.396;2024-01-07T14:47:53;1.40;;;1.30;;
8399;SDS011;4237;47.030;15.396;2024-01-07T14:50:22;1.10;;;0.97;;
8399;SDS011;4237;47.030;15.396;2024-01-07T14:52:51;1.00;;;0.87;;
8399;SDS011;4237;47.030;15.396;2024-01-07T14:55:20;1.37;;;1.00;;
8399;SDS011;4237;47.030;15.396;2024-01-07T14:57:48;0.73;;;0.73;;
8399;SDS011;4237;47.030;15.396;2024-01-07T15:00:17;1.87;;;1.00;;
8399;SDS011;4237;47.030;15.396;2024-01-07T15:02:46;1.03;;;0.93;;
8399;SDS011;4237;47.030;15.396;2024-01-07T15:05:14;1.00;;;0.90;;
8399;SDS011;4237;47.030;15.396;2024-01-07T15:07:43;0.97;;;0.87;;
8399;SDS011;4237;47.030;15.396;2024-01-07T15:10:15;0.70;;;0.67;;
8399;SDS011;4237;47.030;15.396;2024-01-07T15:12:44;1.23;;;0.90;;
8399;SDS011;4237;47.030;15.396;2024-01-07T15:15:14;1.10;;;0.90;;
8399;SDS011;4237;47.030;15.396;2024-01-07T15:17:43;1.10;;;1.00;;